Hauptseite
METAR-TAF:

METAR-TAF

Flughäfen :

Flughafen Pantelleria

Pantelleria, Italien

Breite: 36-49N, Länge: 011-58E, Höhe: 191 m

Beobachtung

Neuester Wetterbericht von vor 11 Stunden und 6 Minuten, um 17:50 UTC
Wind 2 kt aus West/Nordwest
Temperatur 18°C
Luftfeuchtigkeit 77%
Luftdruck 1015 hPa
Sichtweite: 7000 m

METAR: LICG 241750Z 29002KT 7000 NSC 18/14 Q1015

Zeit: 06:56 (04:56 UTC)

Prognose

Neuester Wetterbericht von vor 14 Stunden und 56 Minuten, um 14:00 UTC
Gültige Prognose vom 24 um 15 UTC bis 24 um 24 UTC
Wind 10 kt aus Nord
Sichtweite 10 km oder mehr
keine Wolken unter 1500 m und keine Kumulonimbus oder Gewitterwolken

TAF: LICG 241400Z 2415/2424 35010KT CAVOK

Wetterbeobachtungen und Prognosen von mehr als 4000 Flughäfen (METAR und TAF Bericht).

Die verfügbaren Stationen werden durch gelbe und rote Markierungen auf der Karte dargestellt.

Führen Sie die Maus auf sie, um den Namen der Station zu sehen.

Darauf klicken, um die Beobachtung von Wetterbeobachtungen und Prognosen zu sehen.

Um die Karte zu ändern : klicken Sie auf den grünen Tasten mit einem schwarzen Kreuz Zum Vergrößern, auf den grünen Button mit einem Gedankenstrich zu verkleinern, oder auf die grünen Pfeile für benachbarte Karten.


METAR-TAF: